Flight Track Log - Related Links

Times and Time Zones

All times are in EDT time to prevent confusion due to time zone crossing. See the TAM3555 flight status page for this flight to view local times or setup timezone preferences in your user account.

Time Position Orientation Groundspeed Altitude Reporting Facility
EDT Latitude Longitude Course Direction KTS MPH feet Rate Location/Type
Tue 09:14:00 PM -28.2995 -50.3930 201° Southwest  Level Estimated
Tue 09:15:00 PM -28.3887 -50.4333 202° Southwest  Level Estimated
Tue 09:16:00 PM -28.4779 -50.4737 202° Southwest  Level Estimated
Tue 09:17:00 PM -28.5671 -50.5141 202° Southwest  Level Estimated
Tue 09:18:00 PM -28.6563 -50.5546 202° Southwest  Level Estimated
Tue 09:19:00 PM -28.7455 -50.5951 202° Southwest  Level Estimated
Tue 09:20:00 PM -28.8346 -50.6358 202° Southwest  Level Estimated
Tue 09:21:00 PM -28.9237 -50.6765 202° Southwest  Level Estimated
Tue 09:22:00 PM -29.0129 -50.7173 202° Southwest  Level Estimated
Tue 09:23:00 PM -29.1020 -50.7581 202° Southwest  Level Estimated
Tue 09:24:00 PM -29.1911 -50.7990 202° Southwest  Level Estimated
Tue 09:25:00 PM -29.2802 -50.8400 202° Southwest  Level Estimated
Tue 09:26:00 PM -29.3693 -50.8811 202° Southwest  Level Estimated
Tue 09:27:00 PM -29.4583 -50.9222 202° Southwest  Level Estimated
Tue 09:28:00 PM -29.5474 -50.9634 202° Southwest  Level Estimated
Tue 09:29:00 PM -29.6364 -51.0047 202° Southwest  Level Estimated
Tue 09:30:00 PM -29.7254 -51.0460 202° Southwest  Level Estimated
Tue 09:31:00 PM -29.8144 -51.0874 202° Southwest  Level Estimated
Tue 09:32:00 PM -29.9034 -51.1289 202° Southwest  Level Estimated
Tue 09:33:00 PM -29.9924 -51.1705 202° Southwest  Level Estimated
Tue 09:34:00 PM -29.9944 -51.1714 202° Southwest  Level Estimated
Tue 09:35:00 PM -29.9944 -51.1714 41° Northeast  Level Estimated
Tue 09:36:00 PM -29.9944 -51.1714 41° Northeast  Level Estimated
Tue 09:37:00 PM -29.9944 -51.1714 41° Northeast  Level Estimated
Tue 09:38:00 PM -29.9944 -51.1714 41° Northeast  Level Estimated
Tue 09:39:00 PM -29.9944 -51.1714 41° Northeast  Level Estimated
Tue 09:40:00 PM -29.9944 -51.1714 41° Northeast  Level Estimated
Tue 09:41:00 PM -29.9944 -51.1714 41° Northeast  Level Estimated
Tue 09:42:00 PM -29.9944 -51.1714 41° Northeast  Level Estimated
Tue 09:43:00 PM -29.9944 -51.1714 41° Northeast  Level Estimated
Tue 09:44:00 PM -29.9944 -51.1714 41° Northeast  Level Estimated
Tue 09:45:00 PM -29.9944 -51.1714 41° Northeast  Level Estimated
Tue 09:46:00 PM -29.9944 -51.1714 41° Northeast  Level Estimated
Tue 09:47:00 PM -29.9944 -51.1714 41° Northeast  Level Estimated
Tue 09:48:00 PM -29.9944 -51.1714 41° Northeast  Level Estimated
Tue 09:49:00 PM -29.9944 -51.1714 41° Northeast  Level Estimated

Login

Don't have an account? Register now (free) for customized features, flight alerts, and more!